sensor_id;sensor_type;location;lat;lon;timestamp;P1;durP1;ratioP1;P2;durP2;ratioP2
21800;SDS011;11062;51.164;16.924;2023-07-09T00:01:18;10.73;;;7.32;;
21800;SDS011;11062;51.164;16.924;2023-07-09T00:03:45;9.45;;;7.28;;
21800;SDS011;11062;51.164;16.924;2023-07-09T00:06:16;11.68;;;7.30;;
21800;SDS011;11062;51.164;16.924;2023-07-09T00:08:45;8.55;;;6.35;;
21800;SDS011;11062;51.164;16.924;2023-07-09T00:11:13;12.50;;;7.95;;
21800;SDS011;11062;51.164;16.924;2023-07-09T00:13:40;14.43;;;7.38;;
21800;SDS011;11062;51.164;16.924;2023-07-09T00:16:10;8.60;;;7.28;;
21800;SDS011;11062;51.164;16.924;2023-07-09T00:18:39;11.70;;;7.38;;
21800;SDS011;11062;51.164;16.924;2023-07-09T00:21:05;10.32;;;7.95;;
21800;SDS011;11062;51.164;16.924;2023-07-09T00:23:31;11.35;;;8.20;;
21800;SDS011;11062;51.164;16.924;2023-07-09T00:25:58;10.52;;;7.70;;
21800;SDS011;11062;51.164;16.924;2023-07-09T00:28:24;11.30;;;8.00;;
21800;SDS011;11062;51.164;16.924;2023-07-09T00:30:50;14.30;;;7.47;;
21800;SDS011;11062;51.164;16.924;2023-07-09T00:33:16;12.05;;;8.05;;
21800;SDS011;11062;51.164;16.924;2023-07-09T00:35:46;13.10;;;8.15;;
21800;SDS011;11062;51.164;16.924;2023-07-09T00:38:17;14.48;;;8.00;;
21800;SDS011;11062;51.164;16.924;2023-07-09T00:41:01;14.18;;;8.50;;
21800;SDS011;11062;51.164;16.924;2023-07-09T00:43:35;11.50;;;7.88;;
21800;SDS011;11062;51.164;16.924;2023-07-09T00:49:14;11.35;;;8.23;;
21800;SDS011;11062;51.164;16.924;2023-07-09T00:51:44;15.00;;;8.50;;
21800;SDS011;11062;51.164;16.924;2023-07-09T00:54:25;35.58;;;8.70;;
21800;SDS011;11062;51.164;16.924;2023-07-09T00:56:57;12.75;;;8.95;;
21800;SDS011;11062;51.164;16.924;2023-07-09T00:59:26;176.23;;;17.40;;
21800;SDS011;11062;51.164;16.924;2023-07-09T01:01:54;39.65;;;11.38;;
21800;SDS011;11062;51.164;16.924;2023-07-09T01:04:22;28.25;;;10.15;;
21800;SDS011;11062;51.164;16.924;2023-07-09T01:06:53;15.48;;;10.63;;
21800;SDS011;11062;51.164;16.924;2023-07-09T01:09:21;18.65;;;10.95;;
21800;SDS011;11062;51.164;16.924;2023-07-09T01:11:48;16.75;;;9.77;;
21800;SDS011;11062;51.164;16.924;2023-07-09T01:14:15;14.52;;;10.10;;
21800;SDS011;11062;51.164;16.924;2023-07-09T01:16:49;20.35;;;10.20;;
21800;SDS011;11062;51.164;16.924;2023-07-09T01:19:26;14.32;;;8.88;;
21800;SDS011;11062;51.164;16.924;2023-07-09T01:21:58;16.10;;;9.00;;
21800;SDS011;11062;51.164;16.924;2023-07-09T01:27:13;14.80;;;9.25;;
21800;SDS011;11062;51.164;16.924;2023-07-09T01:29:39;14.02;;;8.60;;
21800;SDS011;11062;51.164;16.924;2023-07-09T01:32:08;15.07;;;9.45;;
21800;SDS011;11062;51.164;16.924;2023-07-09T01:34:34;15.25;;;9.55;;
21800;SDS011;11062;51.164;16.924;2023-07-09T01:37:00;14.60;;;9.52;;
21800;SDS011;11062;51.164;16.924;2023-07-09T01:39:26;13.35;;;9.32;;
21800;SDS011;11062;51.164;16.924;2023-07-09T01:41:56;14.32;;;8.85;;
21800;SDS011;11062;51.164;16.924;2023-07-09T01:44:22;12.07;;;8.40;;
21800;SDS011;11062;51.164;16.924;2023-07-09T01:46:48;14.27;;;8.60;;
21800;SDS011;11062;51.164;16.924;2023-07-09T01:49:14;13.50;;;8.48;;
21800;SDS011;11062;51.164;16.924;2023-07-09T01:51:41;10.45;;;8.25;;
21800;SDS011;11062;51.164;16.924;2023-07-09T01:54:08;15.32;;;8.65;;
21800;SDS011;11062;51.164;16.924;2023-07-09T01:56:33;12.18;;;8.25;;
21800;SDS011;11062;51.164;16.924;2023-07-09T01:59:03;14.10;;;8.70;;
21800;SDS011;11062;51.164;16.924;2023-07-09T02:01:29;11.25;;;7.95;;
21800;SDS011;11062;51.164;16.924;2023-07-09T02:03:58;11.75;;;8.68;;
21800;SDS011;11062;51.164;16.924;2023-07-09T02:06:24;13.35;;;9.38;;
21800;SDS011;11062;51.164;16.924;2023-07-09T02:08:50;13.45;;;8.45;;
21800;SDS011;11062;51.164;16.924;2023-07-09T02:11:16;10.77;;;8.07;;
21800;SDS011;11062;51.164;16.924;2023-07-09T02:13:42;14.07;;;8.23;;
21800;SDS011;11062;51.164;16.924;2023-07-09T02:16:08;14.65;;;7.78;;
21800;SDS011;11062;51.164;16.924;2023-07-09T02:18:34;10.45;;;8.10;;
21800;SDS011;11062;51.164;16.924;2023-07-09T02:23:35;15.60;;;8.23;;
21800;SDS011;11062;51.164;16.924;2023-07-09T02:26:06;8.32;;;7.00;;
21800;SDS011;11062;51.164;16.924;2023-07-09T02:31:12;10.27;;;7.97;;
21800;SDS011;11062;51.164;16.924;2023-07-09T02:33:39;12.15;;;7.43;;
21800;SDS011;11062;51.164;16.924;2023-07-09T02:36:05;12.15;;;8.10;;
21800;SDS011;11062;51.164;16.924;2023-07-09T02:38:30;14.80;;;7.78;;
21800;SDS011;11062;51.164;16.924;2023-07-09T02:40:56;13.95;;;8.20;;
21800;SDS011;11062;51.164;16.924;2023-07-09T02:43:22;10.88;;;8.27;;
21800;SDS011;11062;51.164;16.924;2023-07-09T02:45:55;15.80;;;7.80;;
21800;SDS011;11062;51.164;16.924;2023-07-09T02:48:22;11.07;;;7.95;;
21800;SDS011;11062;51.164;16.924;2023-07-09T02:50:53;10.13;;;7.22;;
21800;SDS011;11062;51.164;16.924;2023-07-09T02:53:33;9.50;;;7.32;;
21800;SDS011;11062;51.164;16.924;2023-07-09T02:56:06;14.50;;;7.82;;
21800;SDS011;11062;51.164;16.924;2023-07-09T02:58:36;12.15;;;7.85;;
21800;SDS011;11062;51.164;16.924;2023-07-09T03:01:03;12.65;;;7.60;;
21800;SDS011;11062;51.164;16.924;2023-07-09T03:03:30;14.27;;;7.93;;
21800;SDS011;11062;51.164;16.924;2023-07-09T03:06:00;9.15;;;6.80;;
21800;SDS011;11062;51.164;16.924;2023-07-09T03:08:26;10.32;;;7.68;;
21800;SDS011;11062;51.164;16.924;2023-07-09T03:10:52;9.30;;;7.18;;
21800;SDS011;11062;51.164;16.924;2023-07-09T03:13:23;13.20;;;7.53;;
21800;SDS011;11062;51.164;16.924;2023-07-09T03:15:58;8.20;;;7.05;;
21800;SDS011;11062;51.164;16.924;2023-07-09T03:18:34;12.13;;;7.25;;
21800;SDS011;11062;51.164;16.924;2023-07-09T03:21:06;9.18;;;6.70;;
21800;SDS011;11062;51.164;16.924;2023-07-09T03:23:37;11.35;;;7.25;;
21800;SDS011;11062;51.164;16.924;2023-07-09T03:26:13;12.48;;;7.28;;
21800;SDS011;11062;51.164;16.924;2023-07-09T03:28:58;9.73;;;7.65;;
21800;SDS011;11062;51.164;16.924;2023-07-09T03:31:25;11.77;;;7.35;;
21800;SDS011;11062;51.164;16.924;2023-07-09T03:33:52;9.40;;;6.82;;
21800;SDS011;11062;51.164;16.924;2023-07-09T03:36:21;10.48;;;7.75;;
21800;SDS011;11062;51.164;16.924;2023-07-09T03:38:50;12.13;;;7.60;;
21800;SDS011;11062;51.164;16.924;2023-07-09T03:41:19;13.65;;;7.78;;
21800;SDS011;11062;51.164;16.924;2023-07-09T03:43:47;9.10;;;7.70;;
21800;SDS011;11062;51.164;16.924;2023-07-09T03:46:20;10.13;;;7.70;;
21800;SDS011;11062;51.164;16.924;2023-07-09T03:48:46;10.35;;;7.63;;
21800;SDS011;11062;51.164;16.924;2023-07-09T03:51:12;8.25;;;7.07;;
21800;SDS011;11062;51.164;16.924;2023-07-09T03:53:38;15.15;;;8.55;;
21800;SDS011;11062;51.164;16.924;2023-07-09T03:56:07;14.85;;;8.73;;
21800;SDS011;11062;51.164;16.924;2023-07-09T03:58:33;13.60;;;7.40;;
21800;SDS011;11062;51.164;16.924;2023-07-09T04:00:59;11.80;;;7.22;;
21800;SDS011;11062;51.164;16.924;2023-07-09T04:03:24;14.43;;;8.20;;
21800;SDS011;11062;51.164;16.924;2023-07-09T04:05:51;14.48;;;7.75;;
21800;SDS011;11062;51.164;16.924;2023-07-09T04:08:17;13.88;;;7.07;;
21800;SDS011;11062;51.164;16.924;2023-07-09T04:10:43;8.40;;;6.93;;
21800;SDS011;11062;51.164;16.924;2023-07-09T04:13:09;13.07;;;6.97;;
21800;SDS011;11062;51.164;16.924;2023-07-09T04:15:35;10.05;;;8.30;;
21800;SDS011;11062;51.164;16.924;2023-07-09T04:18:01;16.05;;;7.20;;
21800;SDS011;11062;51.164;16.924;2023-07-09T04:20:27;13.38;;;8.25;;
21800;SDS011;11062;51.164;16.924;2023-07-09T04:22:53;9.98;;;7.63;;
21800;SDS011;11062;51.164;16.924;2023-07-09T04:25:19;10.90;;;6.85;;
21800;SDS011;11062;51.164;16.924;2023-07-09T04:27:45;11.52;;;7.43;;
21800;SDS011;11062;51.164;16.924;2023-07-09T04:30:12;10.88;;;8.18;;
21800;SDS011;11062;51.164;16.924;2023-07-09T04:32:40;14.35;;;8.80;;
21800;SDS011;11062;51.164;16.924;2023-07-09T04:35:08;10.45;;;7.45;;
21800;SDS011;11062;51.164;16.924;2023-07-09T04:37:36;9.85;;;7.38;;
21800;SDS011;11062;51.164;16.924;2023-07-09T04:40:02;14.15;;;8.43;;
21800;SDS011;11062;51.164;16.924;2023-07-09T04:42:32;31.30;;;8.77;;
21800;SDS011;11062;51.164;16.924;2023-07-09T04:44:58;13.13;;;7.13;;
21800;SDS011;11062;51.164;16.924;2023-07-09T04:47:27;12.77;;;7.40;;
21800;SDS011;11062;51.164;16.924;2023-07-09T04:49:56;11.65;;;7.68;;
21800;SDS011;11062;51.164;16.924;2023-07-09T04:52:22;12.85;;;8.15;;
21800;SDS011;11062;51.164;16.924;2023-07-09T04:54:48;10.23;;;7.07;;
21800;SDS011;11062;51.164;16.924;2023-07-09T04:57:17;11.73;;;7.95;;
21800;SDS011;11062;51.164;16.924;2023-07-09T04:59:45;11.55;;;7.82;;
21800;SDS011;11062;51.164;16.924;2023-07-09T05:02:12;11.68;;;8.25;;
21800;SDS011;11062;51.164;16.924;2023-07-09T05:04:41;11.68;;;8.00;;
21800;SDS011;11062;51.164;16.924;2023-07-09T05:07:07;9.82;;;7.38;;
21800;SDS011;11062;51.164;16.924;2023-07-09T05:09:38;11.32;;;7.32;;
21800;SDS011;11062;51.164;16.924;2023-07-09T05:12:04;15.88;;;8.40;;
21800;SDS011;11062;51.164;16.924;2023-07-09T05:14:30;9.82;;;7.53;;
21800;SDS011;11062;51.164;16.924;2023-07-09T05:16:56;12.07;;;8.57;;
21800;SDS011;11062;51.164;16.924;2023-07-09T05:19:21;13.30;;;8.00;;
21800;SDS011;11062;51.164;16.924;2023-07-09T05:21:47;14.13;;;7.90;;
21800;SDS011;11062;51.164;16.924;2023-07-09T05:24:13;15.40;;;8.00;;
21800;SDS011;11062;51.164;16.924;2023-07-09T05:26:38;10.05;;;7.95;;
21800;SDS011;11062;51.164;16.924;2023-07-09T05:29:04;10.85;;;7.88;;
21800;SDS011;11062;51.164;16.924;2023-07-09T05:31:34;11.05;;;8.20;;
21800;SDS011;11062;51.164;16.924;2023-07-09T05:34:04;17.83;;;9.38;;
21800;SDS011;11062;51.164;16.924;2023-07-09T05:36:31;17.40;;;9.05;;
21800;SDS011;11062;51.164;16.924;2023-07-09T05:41:59;11.50;;;8.18;;
21800;SDS011;11062;51.164;16.924;2023-07-09T05:44:46;14.18;;;8.77;;
21800;SDS011;11062;51.164;16.924;2023-07-09T05:47:23;15.25;;;8.65;;
21800;SDS011;11062;51.164;16.924;2023-07-09T05:52:55;18.05;;;8.55;;
21800;SDS011;11062;51.164;16.924;2023-07-09T05:55:30;10.48;;;7.78;;
21800;SDS011;11062;51.164;16.924;2023-07-09T05:58:12;13.00;;;7.97;;
21800;SDS011;11062;51.164;16.924;2023-07-09T06:00:41;9.45;;;7.90;;
21800;SDS011;11062;51.164;16.924;2023-07-09T06:03:13;16.65;;;8.20;;
21800;SDS011;11062;51.164;16.924;2023-07-09T06:05:39;12.45;;;7.38;;
21800;SDS011;11062;51.164;16.924;2023-07-09T06:08:06;11.32;;;8.43;;
21800;SDS011;11062;51.164;16.924;2023-07-09T06:10:32;11.00;;;7.72;;
21800;SDS011;11062;51.164;16.924;2023-07-09T06:12:58;15.27;;;8.45;;
21800;SDS011;11062;51.164;16.924;2023-07-09T06:15:24;15.68;;;8.43;;
21800;SDS011;11062;51.164;16.924;2023-07-09T06:17:51;15.77;;;9.00;;
21800;SDS011;11062;51.164;16.924;2023-07-09T06:20:17;11.05;;;7.25;;
21800;SDS011;11062;51.164;16.924;2023-07-09T06:22:43;12.38;;;7.93;;
21800;SDS011;11062;51.164;16.924;2023-07-09T06:25:09;12.88;;;8.23;;
21800;SDS011;11062;51.164;16.924;2023-07-09T06:27:37;12.57;;;8.02;;
21800;SDS011;11062;51.164;16.924;2023-07-09T06:30:09;10.57;;;7.70;;
21800;SDS011;11062;51.164;16.924;2023-07-09T06:32:36;17.60;;;7.93;;
21800;SDS011;11062;51.164;16.924;2023-07-09T06:35:04;12.23;;;7.78;;
21800;SDS011;11062;51.164;16.924;2023-07-09T06:37:30;9.88;;;7.35;;
21800;SDS011;11062;51.164;16.924;2023-07-09T06:39:56;10.55;;;7.85;;
21800;SDS011;11062;51.164;16.924;2023-07-09T06:42:22;10.48;;;7.05;;
21800;SDS011;11062;51.164;16.924;2023-07-09T06:44:48;10.38;;;7.28;;
21800;SDS011;11062;51.164;16.924;2023-07-09T06:47:13;14.70;;;7.45;;
21800;SDS011;11062;51.164;16.924;2023-07-09T06:49:39;14.02;;;7.40;;
21800;SDS011;11062;51.164;16.924;2023-07-09T06:52:05;10.15;;;6.72;;
21800;SDS011;11062;51.164;16.924;2023-07-09T06:54:31;13.35;;;7.45;;
21800;SDS011;11062;51.164;16.924;2023-07-09T06:56:57;10.07;;;7.38;;
21800;SDS011;11062;51.164;16.924;2023-07-09T06:59:23;12.05;;;8.18;;
21800;SDS011;11062;51.164;16.924;2023-07-09T07:01:49;12.65;;;7.55;;
21800;SDS011;11062;51.164;16.924;2023-07-09T07:04:14;11.07;;;7.47;;
21800;SDS011;11062;51.164;16.924;2023-07-09T07:06:40;13.52;;;7.35;;
21800;SDS011;11062;51.164;16.924;2023-07-09T07:09:06;12.98;;;7.50;;
21800;SDS011;11062;51.164;16.924;2023-07-09T07:11:33;9.63;;;7.05;;
21800;SDS011;11062;51.164;16.924;2023-07-09T07:13:59;14.65;;;7.68;;
21800;SDS011;11062;51.164;16.924;2023-07-09T07:16:25;12.30;;;6.75;;
21800;SDS011;11062;51.164;16.924;2023-07-09T07:18:51;13.00;;;7.40;;
21800;SDS011;11062;51.164;16.924;2023-07-09T07:21:17;11.05;;;7.38;;
21800;SDS011;11062;51.164;16.924;2023-07-09T07:23:43;8.88;;;6.63;;
21800;SDS011;11062;51.164;16.924;2023-07-09T07:26:09;15.32;;;6.57;;
21800;SDS011;11062;51.164;16.924;2023-07-09T07:28:35;14.63;;;6.97;;
21800;SDS011;11062;51.164;16.924;2023-07-09T07:31:05;9.70;;;7.13;;
21800;SDS011;11062;51.164;16.924;2023-07-09T07:33:33;9.35;;;6.63;;
21800;SDS011;11062;51.164;16.924;2023-07-09T07:35:59;10.52;;;6.40;;
21800;SDS011;11062;51.164;16.924;2023-07-09T07:38:25;7.60;;;6.43;;
21800;SDS011;11062;51.164;16.924;2023-07-09T07:40:51;10.48;;;6.70;;
21800;SDS011;11062;51.164;16.924;2023-07-09T07:43:16;14.40;;;8.25;;
21800;SDS011;11062;51.164;16.924;2023-07-09T07:45:43;9.02;;;6.13;;
21800;SDS011;11062;51.164;16.924;2023-07-09T07:48:10;22.05;;;7.65;;
21800;SDS011;11062;51.164;16.924;2023-07-09T07:50:37;26.35;;;8.25;;
21800;SDS011;11062;51.164;16.924;2023-07-09T07:53:03;31.23;;;9.27;;
21800;SDS011;11062;51.164;16.924;2023-07-09T07:55:29;36.63;;;9.70;;
21800;SDS011;11062;51.164;16.924;2023-07-09T07:57:55;16.02;;;5.90;;
21800;SDS011;11062;51.164;16.924;2023-07-09T08:00:22;7.47;;;5.95;;
21800;SDS011;11062;51.164;16.924;2023-07-09T08:02:48;6.90;;;5.20;;
21800;SDS011;11062;51.164;16.924;2023-07-09T08:05:14;8.88;;;4.60;;
21800;SDS011;11062;51.164;16.924;2023-07-09T08:07:44;7.43;;;5.65;;
21800;SDS011;11062;51.164;16.924;2023-07-09T08:10:11;7.63;;;6.30;;
21800;SDS011;11062;51.164;16.924;2023-07-09T08:12:41;11.23;;;6.05;;
21800;SDS011;11062;51.164;16.924;2023-07-09T08:15:24;7.50;;;5.68;;
21800;SDS011;11062;51.164;16.924;2023-07-09T08:17:53;7.85;;;5.45;;
21800;SDS011;11062;51.164;16.924;2023-07-09T08:20:19;8.82;;;5.70;;
21800;SDS011;11062;51.164;16.924;2023-07-09T08:22:45;10.05;;;5.35;;
21800;SDS011;11062;51.164;16.924;2023-07-09T08:25:11;6.68;;;5.40;;
21800;SDS011;11062;51.164;16.924;2023-07-09T08:27:37;6.72;;;5.70;;
21800;SDS011;11062;51.164;16.924;2023-07-09T08:30:04;11.93;;;5.88;;
21800;SDS011;11062;51.164;16.924;2023-07-09T08:32:31;6.53;;;5.38;;
21800;SDS011;11062;51.164;16.924;2023-07-09T08:34:57;12.77;;;6.38;;
21800;SDS011;11062;51.164;16.924;2023-07-09T08:37:23;6.13;;;5.45;;
21800;SDS011;11062;51.164;16.924;2023-07-09T08:39:49;15.15;;;5.40;;
21800;SDS011;11062;51.164;16.924;2023-07-09T08:42:17;9.93;;;5.28;;
21800;SDS011;11062;51.164;16.924;2023-07-09T08:48:03;6.15;;;4.90;;
21800;SDS011;11062;51.164;16.924;2023-07-09T08:50:34;6.90;;;4.43;;
21800;SDS011;11062;51.164;16.924;2023-07-09T08:53:03;6.40;;;4.22;;
21800;SDS011;11062;51.164;16.924;2023-07-09T08:55:31;9.30;;;4.60;;
21800;SDS011;11062;51.164;16.924;2023-07-09T08:58:15;7.32;;;4.53;;
21800;SDS011;11062;51.164;16.924;2023-07-09T09:00:51;5.97;;;4.45;;
21800;SDS011;11062;51.164;16.924;2023-07-09T09:03:28;4.97;;;4.47;;
21800;SDS011;11062;51.164;16.924;2023-07-09T09:06:15;6.10;;;4.32;;
21800;SDS011;11062;51.164;16.924;2023-07-09T09:14:17;9.48;;;4.18;;
21800;SDS011;11062;51.164;16.924;2023-07-09T09:16:55;7.90;;;4.03;;
21800;SDS011;11062;51.164;16.924;2023-07-09T09:19:25;5.75;;;4.38;;
21800;SDS011;11062;51.164;16.924;2023-07-09T09:22:04;6.38;;;4.18;;
21800;SDS011;11062;51.164;16.924;2023-07-09T09:24:38;7.65;;;3.70;;
21800;SDS011;11062;51.164;16.924;2023-07-09T09:27:20;7.68;;;4.20;;
21800;SDS011;11062;51.164;16.924;2023-07-09T09:29:46;4.43;;;3.97;;
21800;SDS011;11062;51.164;16.924;2023-07-09T09:32:36;24.58;;;4.75;;
21800;SDS011;11062;51.164;16.924;2023-07-09T09:35:14;3.85;;;3.33;;
21800;SDS011;11062;51.164;16.924;2023-07-09T09:37:44;7.80;;;3.83;;
21800;SDS011;11062;51.164;16.924;2023-07-09T09:40:16;9.18;;;3.83;;
21800;SDS011;11062;51.164;16.924;2023-07-09T09:42:47;4.57;;;3.55;;
21800;SDS011;11062;51.164;16.924;2023-07-09T09:45:14;4.10;;;3.67;;
21800;SDS011;11062;51.164;16.924;2023-07-09T09:47:43;15.00;;;5.82;;
21800;SDS011;11062;51.164;16.924;2023-07-09T09:50:16;5.32;;;3.35;;
21800;SDS011;11062;51.164;16.924;2023-07-09T09:52:44;5.47;;;3.45;;
21800;SDS011;11062;51.164;16.924;2023-07-09T09:55:13;13.18;;;5.55;;
21800;SDS011;11062;51.164;16.924;2023-07-09T09:57:48;5.88;;;3.67;;
21800;SDS011;11062;51.164;16.924;2023-07-09T10:00:15;4.07;;;3.65;;
21800;SDS011;11062;51.164;16.924;2023-07-09T10:02:42;11.18;;;3.80;;
21800;SDS011;11062;51.164;16.924;2023-07-09T10:05:16;5.78;;;3.70;;
21800;SDS011;11062;51.164;16.924;2023-07-09T10:10:32;3.92;;;3.38;;
21800;SDS011;11062;51.164;16.924;2023-07-09T10:13:05;15.45;;;6.15;;
21800;SDS011;11062;51.164;16.924;2023-07-09T10:33:01;6.45;;;3.58;;
21800;SDS011;11062;51.164;16.924;2023-07-09T10:38:25;8.13;;;3.97;;
21800;SDS011;11062;51.164;16.924;2023-07-09T10:40:58;5.95;;;3.90;;
21800;SDS011;11062;51.164;16.924;2023-07-09T10:43:33;4.57;;;3.88;;
21800;SDS011;11062;51.164;16.924;2023-07-09T10:46:05;7.68;;;4.18;;
21800;SDS011;11062;51.164;16.924;2023-07-09T10:48:57;5.65;;;4.10;;
21800;SDS011;11062;51.164;16.924;2023-07-09T10:51:29;6.00;;;4.80;;
21800;SDS011;11062;51.164;16.924;2023-07-09T10:57:03;17.23;;;7.30;;
21800;SDS011;11062;51.164;16.924;2023-07-09T10:59:40;22.77;;;7.22;;
21800;SDS011;11062;51.164;16.924;2023-07-09T11:02:26;21.73;;;8.65;;
21800;SDS011;11062;51.164;16.924;2023-07-09T11:04:58;16.67;;;7.57;;
21800;SDS011;11062;51.164;16.924;2023-07-09T11:10:26;23.92;;;8.43;;
21800;SDS011;11062;51.164;16.924;2023-07-09T11:15:37;17.70;;;7.78;;
21800;SDS011;11062;51.164;16.924;2023-07-09T11:18:06;18.98;;;7.85;;
21800;SDS011;11062;51.164;16.924;2023-07-09T11:20:42;16.65;;;7.22;;
21800;SDS011;11062;51.164;16.924;2023-07-09T11:23:20;15.48;;;7.15;;
21800;SDS011;11062;51.164;16.924;2023-07-09T11:26:00;18.77;;;6.70;;
21800;SDS011;11062;51.164;16.924;2023-07-09T11:28:35;13.85;;;7.00;;
21800;SDS011;11062;51.164;16.924;2023-07-09T11:31:07;19.17;;;7.35;;
21800;SDS011;11062;51.164;16.924;2023-07-09T11:33:46;20.85;;;7.45;;
21800;SDS011;11062;51.164;16.924;2023-07-09T11:36:14;20.55;;;7.85;;
21800;SDS011;11062;51.164;16.924;2023-07-09T11:38:50;15.65;;;7.85;;
21800;SDS011;11062;51.164;16.924;2023-07-09T11:44:14;17.55;;;7.32;;
21800;SDS011;11062;51.164;16.924;2023-07-09T11:46:48;21.05;;;9.02;;
21800;SDS011;11062;51.164;16.924;2023-07-09T11:52:39;14.30;;;6.97;;
21800;SDS011;11062;51.164;16.924;2023-07-09T11:55:21;17.85;;;6.88;;
21800;SDS011;11062;51.164;16.924;2023-07-09T11:57:53;17.33;;;7.50;;
21800;SDS011;11062;51.164;16.924;2023-07-09T12:00:20;15.23;;;7.80;;
21800;SDS011;11062;51.164;16.924;2023-07-09T12:02:46;21.30;;;8.45;;
21800;SDS011;11062;51.164;16.924;2023-07-09T12:05:12;15.07;;;6.93;;
21800;SDS011;11062;51.164;16.924;2023-07-09T12:07:43;18.88;;;7.55;;
21800;SDS011;11062;51.164;16.924;2023-07-09T12:10:15;34.83;;;7.15;;
21800;SDS011;11062;51.164;16.924;2023-07-09T12:12:54;21.35;;;7.78;;
21800;SDS011;11062;51.164;16.924;2023-07-09T12:15:24;24.90;;;8.13;;
21800;SDS011;11062;51.164;16.924;2023-07-09T12:17:52;64.32;;;9.57;;
21800;SDS011;11062;51.164;16.924;2023-07-09T12:20:20;20.30;;;7.38;;
21800;SDS011;11062;51.164;16.924;2023-07-09T12:22:46;32.78;;;8.23;;
21800;SDS011;11062;51.164;16.924;2023-07-09T12:25:18;23.63;;;7.90;;
21800;SDS011;11062;51.164;16.924;2023-07-09T12:27:52;22.00;;;7.32;;
21800;SDS011;11062;51.164;16.924;2023-07-09T12:30:18;29.88;;;7.38;;
21800;SDS011;11062;51.164;16.924;2023-07-09T12:32:45;26.00;;;7.80;;
21800;SDS011;11062;51.164;16.924;2023-07-09T12:35:15;15.88;;;7.30;;
21800;SDS011;11062;51.164;16.924;2023-07-09T12:37:42;13.75;;;8.45;;
21800;SDS011;11062;51.164;16.924;2023-07-09T12:40:13;17.08;;;6.60;;
21800;SDS011;11062;51.164;16.924;2023-07-09T12:42:42;210.25;;;20.20;;
21800;SDS011;11062;51.164;16.924;2023-07-09T12:45:13;14.95;;;7.05;;
21800;SDS011;11062;51.164;16.924;2023-07-09T12:47:41;17.90;;;7.93;;
21800;SDS011;11062;51.164;16.924;2023-07-09T12:52:51;17.80;;;7.43;;
21800;SDS011;11062;51.164;16.924;2023-07-09T12:55:23;17.80;;;6.88;;
21800;SDS011;11062;51.164;16.924;2023-07-09T12:57:50;25.73;;;8.75;;
21800;SDS011;11062;51.164;16.924;2023-07-09T13:00:17;20.63;;;6.95;;
21800;SDS011;11062;51.164;16.924;2023-07-09T13:02:43;20.55;;;6.85;;
21800;SDS011;11062;51.164;16.924;2023-07-09T13:05:20;24.40;;;7.25;;
21800;SDS011;11062;51.164;16.924;2023-07-09T13:07:50;19.98;;;7.60;;
21800;SDS011;11062;51.164;16.924;2023-07-09T13:10:24;19.02;;;7.18;;
21800;SDS011;11062;51.164;16.924;2023-07-09T13:12:56;21.08;;;7.40;;
21800;SDS011;11062;51.164;16.924;2023-07-09T13:15:27;12.15;;;5.82;;
21800;SDS011;11062;51.164;16.924;2023-07-09T13:18:03;19.67;;;6.93;;
21800;SDS011;11062;51.164;16.924;2023-07-09T13:20:32;17.90;;;6.53;;
21800;SDS011;11062;51.164;16.924;2023-07-09T13:22:59;13.40;;;5.78;;
21800;SDS011;11062;51.164;16.924;2023-07-09T13:25:26;17.88;;;7.30;;
21800;SDS011;11062;51.164;16.924;2023-07-09T13:27:53;13.50;;;6.38;;
21800;SDS011;11062;51.164;16.924;2023-07-09T13:30:18;15.98;;;7.50;;
21800;SDS011;11062;51.164;16.924;2023-07-09T13:32:45;11.10;;;6.18;;
21800;SDS011;11062;51.164;16.924;2023-07-09T13:35:14;11.85;;;5.60;;
21800;SDS011;11062;51.164;16.924;2023-07-09T13:37:41;12.27;;;6.68;;
21800;SDS011;11062;51.164;16.924;2023-07-09T13:40:09;36.58;;;7.63;;
21800;SDS011;11062;51.164;16.924;2023-07-09T13:42:38;14.10;;;6.45;;
21800;SDS011;11062;51.164;16.924;2023-07-09T13:45:08;12.65;;;6.60;;
21800;SDS011;11062;51.164;16.924;2023-07-09T13:47:54;9.63;;;6.22;;
21800;SDS011;11062;51.164;16.924;2023-07-09T13:50:20;21.02;;;6.45;;
21800;SDS011;11062;51.164;16.924;2023-07-09T13:52:48;15.93;;;6.90;;
21800;SDS011;11062;51.164;16.924;2023-07-09T13:55:18;16.92;;;6.32;;
21800;SDS011;11062;51.164;16.924;2023-07-09T13:57:46;23.27;;;7.53;;
21800;SDS011;11062;51.164;16.924;2023-07-09T14:00:13;17.55;;;7.03;;
21800;SDS011;11062;51.164;16.924;2023-07-09T14:02:40;21.77;;;6.80;;
21800;SDS011;11062;51.164;16.924;2023-07-09T14:05:09;37.72;;;9.13;;
21800;SDS011;11062;51.164;16.924;2023-07-09T14:07:37;19.67;;;6.47;;
21800;SDS011;11062;51.164;16.924;2023-07-09T14:10:06;20.20;;;7.00;;
21800;SDS011;11062;51.164;16.924;2023-07-09T14:12:37;15.52;;;5.85;;
21800;SDS011;11062;51.164;16.924;2023-07-09T14:15:12;16.25;;;6.15;;
21800;SDS011;11062;51.164;16.924;2023-07-09T14:17:43;16.92;;;7.10;;
21800;SDS011;11062;51.164;16.924;2023-07-09T14:20:13;13.43;;;6.03;;
21800;SDS011;11062;51.164;16.924;2023-07-09T14:22:40;11.23;;;6.30;;
21800;SDS011;11062;51.164;16.924;2023-07-09T14:25:15;6.60;;;5.00;;
21800;SDS011;11062;51.164;16.924;2023-07-09T14:27:44;16.25;;;7.72;;
21800;SDS011;11062;51.164;16.924;2023-07-09T14:30:13;8.85;;;5.97;;
21800;SDS011;11062;51.164;16.924;2023-07-09T14:32:40;12.23;;;5.88;;
21800;SDS011;11062;51.164;16.924;2023-07-09T14:37:46;16.75;;;7.63;;
21800;SDS011;11062;51.164;16.924;2023-07-09T14:40:14;11.27;;;5.95;;
21800;SDS011;11062;51.164;16.924;2023-07-09T14:42:40;8.15;;;5.75;;
21800;SDS011;11062;51.164;16.924;2023-07-09T14:47:47;12.30;;;6.80;;
21800;SDS011;11062;51.164;16.924;2023-07-09T14:50:13;13.55;;;6.03;;
21800;SDS011;11062;51.164;16.924;2023-07-09T14:52:40;18.25;;;6.75;;
21800;SDS011;11062;51.164;16.924;2023-07-09T14:55:09;17.77;;;6.55;;
21800;SDS011;11062;51.164;16.924;2023-07-09T14:57:43;15.75;;;6.80;;
21800;SDS011;11062;51.164;16.924;2023-07-09T15:00:14;21.52;;;8.35;;
21800;SDS011;11062;51.164;16.924;2023-07-09T15:02:45;13.35;;;6.63;;
21800;SDS011;11062;51.164;16.924;2023-07-09T15:05:22;10.82;;;5.72;;
21800;SDS011;11062;51.164;16.924;2023-07-09T15:07:50;8.98;;;5.93;;
21800;SDS011;11062;51.164;16.924;2023-07-09T15:10:22;8.60;;;6.38;;
21800;SDS011;11062;51.164;16.924;2023-07-09T15:12:49;9.93;;;6.50;;
21800;SDS011;11062;51.164;16.924;2023-07-09T15:15:25;5.70;;;5.10;;
21800;SDS011;11062;51.164;16.924;2023-07-09T15:17:55;7.03;;;5.82;;
21800;SDS011;11062;51.164;16.924;2023-07-09T15:20:24;12.07;;;7.03;;
21800;SDS011;11062;51.164;16.924;2023-07-09T15:22:52;10.38;;;5.45;;
21800;SDS011;11062;51.164;16.924;2023-07-09T15:25:22;8.65;;;6.45;;
21800;SDS011;11062;51.164;16.924;2023-07-09T15:27:50;13.73;;;7.28;;
21800;SDS011;11062;51.164;16.924;2023-07-09T15:30:22;13.50;;;7.20;;
21800;SDS011;11062;51.164;16.924;2023-07-09T15:32:50;15.57;;;7.95;;
21800;SDS011;11062;51.164;16.924;2023-07-09T15:35:17;17.90;;;8.65;;
21800;SDS011;11062;51.164;16.924;2023-07-09T15:37:44;18.65;;;8.10;;
21800;SDS011;11062;51.164;16.924;2023-07-09T15:40:21;9.38;;;7.35;;
21800;SDS011;11062;51.164;16.924;2023-07-09T15:42:55;56.80;;;11.95;;
21800;SDS011;11062;51.164;16.924;2023-07-09T15:45:25;19.33;;;7.97;;
21800;SDS011;11062;51.164;16.924;2023-07-09T15:47:51;9.38;;;7.97;;